P/v Golden Gate — WDE5665 — position and weather

sailwx.info

Track history (hours):
 
Tides and Currents Weather Stations Pressure Air Temp Water Temp Dewpoint Dewpoint Depression Visibility Wind Speed Wind Dir Waves Ship Positions

P/v Golden Gate

Owner: San Francisco Bar Pilots Benevolent and Protective, San Francisco, CA. More information available from US FCC via Universal Licensing System and Coast Guard Vessel Documentation Center.

Last reported at 2016-Feb-14 05:33 UTC. Time now 2016-Feb-14 05:54 UTC.
Position N 37°48' W 122°24'.

Length 23 m; draft 2 m.

Type: Pilot. MMSI: 367370010.

Date/timePositionNaut miles runAvg speedWind from/ knotsBaromVisibWave heightAir tempDewpointWater temp
2016-Feb-14 05:33N 37°48' W 122°24'0 0.0
2016-Feb-14 04:33N 37°48' W 122°24'0 0.0
2016-Feb-14 03:33N 37°48' W 122°24'5 4.7
2016-Feb-14 02:33N 37°48' W 122°30'5 4.7
2016-Feb-14 01:33N 37°48' W 122°24'0 0.0
2016-Feb-14 00:33N 37°48' W 122°24'0 0.0
2016-Feb-13 23:33N 37°48' W 122°24'0 0.0
2016-Feb-13 22:33N 37°48' W 122°24'1 1.3
2016-Feb-13 21:34N 37°48' W 122°22'1 1.3
2016-Feb-13 20:33N 37°48' W 122°24'8 8.0
2016-Feb-13 19:32N 37°47' W 122°34'8 8.5
2016-Feb-13 18:33N 37°48' W 122°24'1 1.2
2016-Feb-13 17:33N 37°49' W 122°25'1 1.2
2016-Feb-13 16:33N 37°48' W 122°24'0 0.0
2016-Feb-13 15:33N 37°48' W 122°24'2 2.4
2016-Feb-13 14:33N 37°46' W 122°22'2 2.1
2016-Feb-13 13:33N 37°48' W 122°23'1 0.7
2016-Feb-13 12:33N 37°48' W 122°24'0 0.0
2016-Feb-13 11:33N 37°48' W 122°24'0 0.0
2016-Feb-13 10:33N 37°48' W 122°24'0 0.0
2016-Feb-13 09:33N 37°48' W 122°24'0 0.0
2016-Feb-13 08:33N 37°48' W 122°24'2 2.5
2016-Feb-13 07:33N 37°46' W 122°22'2 2.4
2016-Feb-13 06:33N 37°48' W 122°24'0 0.0
2016-Feb-13 05:34N 37°48' W 122°24'0 0.0
2016-Feb-13 04:33N 37°48' W 122°24'0 0.0
2016-Feb-13 03:33N 37°48' W 122°24'7 6.9
2016-Feb-13 02:31N 37°47' W 122°33'7 7.4
2016-Feb-13 01:33N 37°48' W 122°24'1 1.2
2016-Feb-13 00:34N 37°48' W 122°22'1 1.5
2016-Feb-12 23:34N 37°47' W 122°22'2 1.7
2016-Feb-12 22:33N 37°48' W 122°24'0 0.0
2016-Feb-12 21:33N 37°48' W 122°24'0 0.0
2016-Feb-12 20:33N 37°48' W 122°24'0 0.0
2016-Feb-12 19:34N 37°48' W 122°24'1 1.2
2016-Feb-12 18:33N 37°49' W 122°25'1 1.2
2016-Feb-12 17:33N 37°48' W 122°24'1 1.0
2016-Feb-12 16:33N 37°48' W 122°23'1 1.0
2016-Feb-12 15:33N 37°48' W 122°24'0 0.0
2016-Feb-12 14:33N 37°48' W 122°24'0 0.0
2016-Feb-12 13:33N 37°48' W 122°24'0 0.0
2016-Feb-12 12:30N 37°48' W 122°24'0 0.0
2016-Feb-12 11:34N 37°48' W 122°24'1 1.4
2016-Feb-12 10:34N 37°49' W 122°25'6 6.0
2016-Feb-12 09:33N 37°44' W 122°21'4 4.1
2016-Feb-12 08:34N 37°48' W 122°23'1 0.6
2016-Feb-12 07:34N 37°48' W 122°24'0 0.0
2016-Feb-12 06:34N 37°48' W 122°24'3 3.3
2016-Feb-12 05:34N 37°48' W 122°20'3 3.3
2016-Feb-12 04:33N 37°48' W 122°24'0 0.0
2016-Feb-12 03:34N 37°48' W 122°24'0 0.0
2016-Feb-12 02:33N 37°48' W 122°24'0 0.0
2016-Feb-12 01:33N 37°48' W 122°24'4 3.7
2016-Feb-12 00:34N 37°45' W 122°20'4 3.7
2016-Feb-11 23:33N 37°48' W 122°24'0 0.0
2016-Feb-11 22:33N 37°48' W 122°24'2 2.4
2016-Feb-11 21:34N 37°47' W 122°21'2 2.4
2016-Feb-11 20:33N 37°48' W 122°24'0 0.0
2016-Feb-11 19:33N 37°48' W 122°24'0 0.0
2016-Feb-11 18:33N 37°48' W 122°24'0 0.0
2016-Feb-11 17:33N 37°48' W 122°24'0 0.0
2016-Feb-11 16:33N 37°48' W 122°24'0 0.0
2016-Feb-11 15:33N 37°48' W 122°24'3 2.8
2016-Feb-11 14:33N 37°48' W 122°20'3 2.8
2016-Feb-11 13:33N 37°48' W 122°24'0 0.0
2016-Feb-11 12:33N 37°48' W 122°24'0 0.0
2016-Feb-11 11:33N 37°48' W 122°24'2 1.9
2016-Feb-11 10:33N 37°47' W 122°22'2 1.9
2016-Feb-11 09:33N 37°48' W 122°24'0 0.2
2016-Feb-11 08:34N 37°48' W 122°24'0 0.0
2016-Feb-11 07:33N 37°48' W 122°24'0 0.0
2016-Feb-11 06:34N 37°48' W 122°24'1 0.7
2016-Feb-11 05:34N 37°49' W 122°24'3 2.9
2016-Feb-11 04:34N 37°48' W 122°20'4 4.1
2016-Feb-11 03:33N 37°44' W 122°20'4 3.9
2016-Feb-11 02:34N 37°48' W 122°19'3 3.1
2016-Feb-11 01:33N 37°48' W 122°23'1 0.6
2016-Feb-11 00:33N 37°48' W 122°24'0 0.0
2016-Feb-10 23:33N 37°48' W 122°24'0 0.0
2016-Feb-10 22:34N 37°48' W 122°24'1110.9
2016-Feb-10 21:33N 37°46' W 122°37'1111.0
2016-Feb-10 20:33N 37°48' W 122°24'0 0.0
2016-Feb-10 19:33N 37°48' W 122°24'0 0.1
2016-Feb-10 18:34N 37°48' W 122°24'2 1.9
2016-Feb-10 17:34N 37°48' W 122°21'2 1.8
2016-Feb-10 16:33N 37°48' W 122°24'3 2.8
2016-Feb-10 15:34N 37°46' W 122°22'3 2.8
2016-Feb-10 14:33N 37°48' W 122°24'0 0.0
2016-Feb-10 13:33N 37°48' W 122°24'9 7.4
2016-Feb-10 12:24N 37°47' W 122°34'910.1
2016-Feb-10 11:33N 37°48' W 122°24'0 0.0
2016-Feb-10 10:33N 37°48' W 122°24'0 0.0
2016-Feb-10 09:33N 37°48' W 122°24'0 0.0
2016-Feb-10 08:33N 37°48' W 122°24'0 0.0
2016-Feb-10 07:33N 37°48' W 122°24'0 0.0
2016-Feb-10 06:33N 37°48' W 122°24'0 0.0
2016-Feb-10 05:33N 37°48' W 122°24'8 7.6
2016-Feb-10 04:33N 37°47' W 122°33'8 7.8
2016-Feb-10 03:33N 37°48' W 122°24'0 0.1
2016-Feb-10 02:33N 37°48' W 122°24'0 0.1
2016-Feb-10 01:33N 37°48' W 122°24'3 2.6
2016-Feb-10 00:34N 37°47' W 122°21'3 2.6
2016-Feb-09 23:33N 37°48' W 122°24'0 0.0
2016-Feb-09 22:33N 37°48' W 122°24'3 2.6
2016-Feb-09 21:34N 37°48' W 122°21'8 8.0
2016-Feb-09 20:34N 37°48' W 122°31'5 5.5
2016-Feb-09 19:34N 37°48' W 122°24'0 0.0
2016-Feb-09 18:33N 37°48' W 122°24'3 2.9
2016-Feb-09 17:34N 37°49' W 122°20'5 5.1
2016-Feb-09 16:33N 37°49' W 122°27'3 2.6
2016-Feb-09 15:34N 37°48' W 122°24'4 3.7
2016-Feb-09 14:32N 37°48' W 122°19'4 4.1
2016-Feb-09 13:34N 37°48' W 122°24'4 4.0
2016-Feb-09 12:33N 37°45' W 122°21'9 8.9
2016-Feb-09 11:33N 37°48' W 122°31'5 4.6
2016-Feb-09 10:33N 37°49' W 122°26'1 0.9
2016-Feb-09 09:33N 37°49' W 122°27'3 2.5
2016-Feb-09 08:33N 37°48' W 122°24'0 0.0
2016-Feb-09 07:33N 37°48' W 122°24'0 0.0
2016-Feb-09 06:34N 37°48' W 122°24'1 1.4
2016-Feb-09 05:33N 37°48' W 122°22'1 1.4
2016-Feb-09 04:33N 37°48' W 122°24'0 0.0
2016-Feb-09 03:33N 37°48' W 122°24'0 0.0
2016-Feb-09 02:33N 37°48' W 122°24'0 0.0
2016-Feb-09 01:33N 37°48' W 122°24'1 0.8
2016-Feb-09 00:33N 37°48' W 122°23'1 0.8
2016-Feb-08 23:33N 37°48' W 122°24'0 0.0
2016-Feb-08 22:33N 37°48' W 122°24'0 0.0
2016-Feb-08 21:33N 37°48' W 122°24'0 0.0
2016-Feb-08 20:33N 37°48' W 122°24'0 0.0
2016-Feb-08 19:33N 37°48' W 122°24'0 0.0
2016-Feb-08 18:33N 37°48' W 122°24'0 0.2
2016-Feb-08 17:34N 37°48' W 122°24'2 1.7
2016-Feb-08 16:34N 37°49' W 122°25'4 4.4
2016-Feb-08 15:34N 37°49' W 122°20'1 1.0
2016-Feb-08 14:34N 37°48' W 122°21'2 2.2
2016-Feb-08 13:33N 37°48' W 122°24'2 1.9
2016-Feb-08 12:33N 37°49' W 122°26'4 4.4
2016-Feb-08 11:33N 37°48' W 122°31'6 6.0
2016-Feb-08 10:33N 37°48' W 122°24'0 0.0
2016-Feb-08 09:34N 37°48' W 122°24'0 0.0
2016-Feb-08 08:33N 37°48' W 122°24'5 5.5
2016-Feb-08 07:33N 37°48' W 122°31'7 7.2
2016-Feb-08 06:33N 37°46' W 122°22'2 2.4
2016-Feb-08 05:34N 37°48' W 122°24'0 0.0
2016-Feb-08 04:34N 37°48' W 122°24'2 1.8
2016-Feb-08 03:33N 37°47' W 122°22'2 1.8
2016-Feb-08 02:33N 37°48' W 122°24'0 0.0
2016-Feb-08 01:33N 37°48' W 122°24'0 0.0
2016-Feb-08 00:33N 37°48' W 122°24'0 0.0
2016-Feb-07 23:33N 37°48' W 122°24'3 3.2
2016-Feb-07 22:34N 37°48' W 122°20'3 3.2
2016-Feb-07 21:33N 37°48' W 122°24'3 2.7
2016-Feb-07 20:34N 37°48' W 122°20'3 2.6
2016-Feb-07 19:33N 37°48' W 122°24'0 0.0
2016-Feb-07 18:33N 37°48' W 122°24'0 0.0
2016-Feb-07 17:33N 37°48' W 122°24'0 0.0
2016-Feb-07 16:33N 37°48' W 122°24'0 0.0
2016-Feb-07 15:33N 37°48' W 122°24'0 0.0
2016-Feb-07 14:33N 37°48' W 122°24'0 0.0
2016-Feb-07 13:33N 37°48' W 122°24'0 0.0
2016-Feb-07 12:33N 37°48' W 122°24'0 0.0
2016-Feb-07 11:33N 37°48' W 122°24'0 0.0
2016-Feb-07 10:33N 37°48' W 122°24'0 0.0
2016-Feb-07 09:33N 37°48' W 122°24'0 0.0
2016-Feb-07 08:34N 37°48' W 122°24'0 0.0
2016-Feb-07 07:33N 37°48' W 122°24'0 0.0
2016-Feb-07 06:34N 37°48' W 122°24'0 0.0
2016-Feb-07 05:34N 37°48' W 122°24'2 1.6
2016-Feb-07 04:34N 37°48' W 122°22'2 1.6
2016-Feb-07 03:33N 37°48' W 122°24'0 0.0
2016-Feb-07 02:33N 37°48' W 122°24'0 0.0
2016-Feb-07 01:34N 37°48' W 122°24'0 0.0
2016-Feb-07 00:34N 37°48' W 122°24'0 0.0
2016-Feb-06 23:33N 37°48' W 122°24'8 7.5
2016-Feb-06 22:34N 37°47' W 122°33'8 7.5
2016-Feb-06 21:33N 37°48' W 122°24'2 1.8
2016-Feb-06 20:33N 37°48' W 122°21'2 1.8
2016-Feb-06 19:33N 37°48' W 122°24'3 3.3
2016-Feb-06 18:33N 37°46' W 122°20'4 4.5
2016-Feb-06 17:33N 37°49' W 122°25'2 1.6
2016-Feb-06 16:34N 37°48' W 122°23'1 0.6
2016-Feb-06 15:33N 37°48' W 122°24'4 3.7
2016-Feb-06 14:34N 37°48' W 122°19'4 3.7
2016-Feb-06 13:33N 37°48' W 122°24'4 3.6
2016-Feb-06 12:34N 37°45' W 122°21'3 2.8
2016-Feb-06 11:34N 37°48' W 122°23'7 7.2
2016-Feb-06 10:34N 37°47' W 122°32'9 9.4
2016-Feb-06 09:34N 37°48' W 122°20'3 3.0
2016-Feb-06 08:34N 37°48' W 122°24'0 0.0
2016-Feb-06 07:34N 37°48' W 122°24'0 0.0
2016-Feb-06 06:34N 37°48' W 122°24'0 0.0
2016-Feb-06 05:33N 37°48' W 122°24'1110.7
2016-Feb-06 04:30N 37°46' W 122°38'1314.1
2016-Feb-06 03:33N 37°46' W 122°21'3 3.0
2016-Feb-06 02:33N 37°48' W 122°24'0 0.1
2016-Feb-06 01:34N 37°48' W 122°24'3 3.3
2016-Feb-06 00:34N 37°48' W 122°20'3 3.4
2016-Feb-05 23:33N 37°48' W 122°24'2 2.1
2016-Feb-05 22:33N 37°49' W 122°26'1 1.2
2016-Feb-05 21:34N 37°49' W 122°28'3 3.2
2016-Feb-05 20:33N 37°48' W 122°24'2 2.2
2016-Feb-05 19:33N 37°49' W 122°26'5 5.3
2016-Feb-05 18:34N 37°49' W 122°20'1 0.7
2016-Feb-05 17:34N 37°48' W 122°20'3 3.1
2016-Feb-05 16:33N 37°48' W 122°24'0 0.0
2016-Feb-05 15:33N 37°48' W 122°24'3 3.5
2016-Feb-05 14:34N 37°49' W 122°19'3 3.4
2016-Feb-05 13:33N 37°48' W 122°24'3 2.9
2016-Feb-05 12:33N 37°46' W 122°21'2 2.1
2016-Feb-05 11:34N 37°48' W 122°20'3 2.7
2016-Feb-05 10:34N 37°48' W 122°24'0 0.0
2016-Feb-05 09:34N 37°48' W 122°24'0 0.0
2016-Feb-05 08:34N 37°48' W 122°24'6 5.7
2016-Feb-05 07:32N 37°48' W 122°31'6 5.9
2016-Feb-05 06:33N 37°48' W 122°24'0 0.0
2016-Feb-05 05:33N 37°48' W 122°24'3 3.1
2016-Feb-05 04:33N 37°49' W 122°20'5 4.7
2016-Feb-05 03:33N 37°49' W 122°26'2 2.0
2016-Feb-05 02:33N 37°48' W 122°24'0 0.0
2016-Feb-05 01:33N 37°48' W 122°24'0 0.0
2016-Feb-05 00:33N 37°48' W 122°24'0 0.0
2016-Feb-04 23:33N 37°48' W 122°24'0 0.0
2016-Feb-04 22:33N 37°48' W 122°24'0 0.0
2016-Feb-04 21:33N 37°48' W 122°24'3 3.4
2016-Feb-04 20:33N 37°48' W 122°20'3 3.4
2016-Feb-04 19:33N 37°48' W 122°24'0 0.0
2016-Feb-04 18:33N 37°48' W 122°24'0 0.0
2016-Feb-04 17:34N 37°48' W 122°24'1 0.7
2016-Feb-04 16:34N 37°49' W 122°24'1 1.0
2016-Feb-04 15:29N 37°49' W 122°25'1 1.3
2016-Feb-04 14:33N 37°48' W 122°24'0 0.0
2016-Feb-04 13:33N 37°48' W 122°24'4 3.5
2016-Feb-04 12:34N 37°49' W 122°19'4 3.5
2016-Feb-04 11:33N 37°48' W 122°24'0 0.0
2016-Feb-04 10:33N 37°48' W 122°24'0 0.0
2016-Feb-04 09:33N 37°48' W 122°24'1010.4
2016-Feb-04 08:34N 37°46' W 122°37'1010.3
2016-Feb-04 07:33N 37°48' W 122°24'0 0.0
2016-Feb-04 06:33N 37°48' W 122°24'0 0.0
2016-Feb-04 05:34N 37°48' W 122°24'  
Track history (hours):
 
Tides and Currents Weather Stations Pressure Air Temp Water Temp Dewpoint Dewpoint Depression Visibility Wind Speed Wind Dir Waves Ship Positions

P/v Golden Gate

Owner: San Francisco Bar Pilots Benevolent and Protective, San Francisco, CA. More information available from US FCC via Universal Licensing System and Coast Guard Vessel Documentation Center.

Last reported at 2016-Feb-14 05:33 UTC. Time now 2016-Feb-14 05:54 UTC.
Position N 37°48' W 122°24'.

Length 23 m; draft 2 m.

Type: Pilot. MMSI: 367370010.

Date/timePositionNaut miles runAvg speedWind from/ knotsBaromVisibWave heightAir tempDewpointWater temp
2016-Feb-14 05:33N 37°48' W 122°24'0 0.0
2016-Feb-14 04:33N 37°48' W 122°24'0 0.0
2016-Feb-14 03:33N 37°48' W 122°24'5 4.7
2016-Feb-14 02:33N 37°48' W 122°30'5 4.7
2016-Feb-14 01:33N 37°48' W 122°24'0 0.0
2016-Feb-14 00:33N 37°48' W 122°24'0 0.0
2016-Feb-13 23:33N 37°48' W 122°24'0 0.0
2016-Feb-13 22:33N 37°48' W 122°24'1 1.3
2016-Feb-13 21:34N 37°48' W 122°22'1 1.3
2016-Feb-13 20:33N 37°48' W 122°24'8 8.0
2016-Feb-13 19:32N 37°47' W 122°34'8 8.5
2016-Feb-13 18:33N 37°48' W 122°24'1 1.2
2016-Feb-13 17:33N 37°49' W 122°25'1 1.2
2016-Feb-13 16:33N 37°48' W 122°24'0 0.0
2016-Feb-13 15:33N 37°48' W 122°24'2 2.4
2016-Feb-13 14:33N 37°46' W 122°22'2 2.1
2016-Feb-13 13:33N 37°48' W 122°23'1 0.7
2016-Feb-13 12:33N 37°48' W 122°24'0 0.0
2016-Feb-13 11:33N 37°48' W 122°24'0 0.0
2016-Feb-13 10:33N 37°48' W 122°24'0 0.0
2016-Feb-13 09:33N 37°48' W 122°24'0 0.0
2016-Feb-13 08:33N 37°48' W 122°24'2 2.5
2016-Feb-13 07:33N 37°46' W 122°22'2 2.4
2016-Feb-13 06:33N 37°48' W 122°24'0 0.0
2016-Feb-13 05:34N 37°48' W 122°24'0 0.0
2016-Feb-13 04:33N 37°48' W 122°24'0 0.0
2016-Feb-13 03:33N 37°48' W 122°24'7 6.9
2016-Feb-13 02:31N 37°47' W 122°33'7 7.4
2016-Feb-13 01:33N 37°48' W 122°24'1 1.2
2016-Feb-13 00:34N 37°48' W 122°22'1 1.5
2016-Feb-12 23:34N 37°47' W 122°22'2 1.7
2016-Feb-12 22:33N 37°48' W 122°24'0 0.0
2016-Feb-12 21:33N 37°48' W 122°24'0 0.0
2016-Feb-12 20:33N 37°48' W 122°24'0 0.0
2016-Feb-12 19:34N 37°48' W 122°24'1 1.2
2016-Feb-12 18:33N 37°49' W 122°25'1 1.2
2016-Feb-12 17:33N 37°48' W 122°24'1 1.0
2016-Feb-12 16:33N 37°48' W 122°23'1 1.0
2016-Feb-12 15:33N 37°48' W 122°24'0 0.0
2016-Feb-12 14:33N 37°48' W 122°24'0 0.0
2016-Feb-12 13:33N 37°48' W 122°24'0 0.0
2016-Feb-12 12:30N 37°48' W 122°24'0 0.0
2016-Feb-12 11:34N 37°48' W 122°24'1 1.4
2016-Feb-12 10:34N 37°49' W 122°25'6 6.0
2016-Feb-12 09:33N 37°44' W 122°21'4 4.1
2016-Feb-12 08:34N 37°48' W 122°23'1 0.6
2016-Feb-12 07:34N 37°48' W 122°24'0 0.0
2016-Feb-12 06:34N 37°48' W 122°24'3 3.3
2016-Feb-12 05:34N 37°48' W 122°20'3 3.3
2016-Feb-12 04:33N 37°48' W 122°24'0 0.0
2016-Feb-12 03:34N 37°48' W 122°24'0 0.0
2016-Feb-12 02:33N 37°48' W 122°24'0 0.0
2016-Feb-12 01:33N 37°48' W 122°24'4 3.7
2016-Feb-12 00:34N 37°45' W 122°20'4 3.7
2016-Feb-11 23:33N 37°48' W 122°24'0 0.0
2016-Feb-11 22:33N 37°48' W 122°24'2 2.4
2016-Feb-11 21:34N 37°47' W 122°21'2 2.4
2016-Feb-11 20:33N 37°48' W 122°24'0 0.0
2016-Feb-11 19:33N 37°48' W 122°24'0 0.0
2016-Feb-11 18:33N 37°48' W 122°24'0 0.0
2016-Feb-11 17:33N 37°48' W 122°24'0 0.0
2016-Feb-11 16:33N 37°48' W 122°24'0 0.0
2016-Feb-11 15:33N 37°48' W 122°24'3 2.8
2016-Feb-11 14:33N 37°48' W 122°20'3 2.8
2016-Feb-11 13:33N 37°48' W 122°24'0 0.0
2016-Feb-11 12:33N 37°48' W 122°24'0 0.0
2016-Feb-11 11:33N 37°48' W 122°24'2 1.9
2016-Feb-11 10:33N 37°47' W 122°22'2 1.9
2016-Feb-11 09:33N 37°48' W 122°24'0 0.2
2016-Feb-11 08:34N 37°48' W 122°24'0 0.0
2016-Feb-11 07:33N 37°48' W 122°24'0 0.0
2016-Feb-11 06:34N 37°48' W 122°24'1 0.7
2016-Feb-11 05:34N 37°49' W 122°24'3 2.9
2016-Feb-11 04:34N 37°48' W 122°20'4 4.1
2016-Feb-11 03:33N 37°44' W 122°20'4 3.9
2016-Feb-11 02:34N 37°48' W 122°19'3 3.1
2016-Feb-11 01:33N 37°48' W 122°23'1 0.6
2016-Feb-11 00:33N 37°48' W 122°24'0 0.0
2016-Feb-10 23:33N 37°48' W 122°24'0 0.0
2016-Feb-10 22:34N 37°48' W 122°24'1110.9
2016-Feb-10 21:33N 37°46' W 122°37'1111.0
2016-Feb-10 20:33N 37°48' W 122°24'0 0.0
2016-Feb-10 19:33N 37°48' W 122°24'0 0.1
2016-Feb-10 18:34N 37°48' W 122°24'2 1.9
2016-Feb-10 17:34N 37°48' W 122°21'2 1.8
2016-Feb-10 16:33N 37°48' W 122°24'3 2.8
2016-Feb-10 15:34N 37°46' W 122°22'3 2.8
2016-Feb-10 14:33N 37°48' W 122°24'0 0.0
2016-Feb-10 13:33N 37°48' W 122°24'9 7.4
2016-Feb-10 12:24N 37°47' W 122°34'910.1
2016-Feb-10 11:33N 37°48' W 122°24'0 0.0
2016-Feb-10 10:33N 37°48' W 122°24'0 0.0
2016-Feb-10 09:33N 37°48' W 122°24'0 0.0
2016-Feb-10 08:33N 37°48' W 122°24'0 0.0
2016-Feb-10 07:33N 37°48' W 122°24'0 0.0
2016-Feb-10 06:33N 37°48' W 122°24'0 0.0
2016-Feb-10 05:33N 37°48' W 122°24'8 7.6
2016-Feb-10 04:33N 37°47' W 122°33'8 7.8
2016-Feb-10 03:33N 37°48' W 122°24'0 0.1
2016-Feb-10 02:33N 37°48' W 122°24'0 0.1
2016-Feb-10 01:33N 37°48' W 122°24'3 2.6
2016-Feb-10 00:34N 37°47' W 122°21'3 2.6
2016-Feb-09 23:33N 37°48' W 122°24'0 0.0
2016-Feb-09 22:33N 37°48' W 122°24'3 2.6
2016-Feb-09 21:34N 37°48' W 122°21'8 8.0
2016-Feb-09 20:34N 37°48' W 122°31'5 5.5
2016-Feb-09 19:34N 37°48' W 122°24'0 0.0
2016-Feb-09 18:33N 37°48' W 122°24'3 2.9
2016-Feb-09 17:34N 37°49' W 122°20'5 5.1
2016-Feb-09 16:33N 37°49' W 122°27'3 2.6
2016-Feb-09 15:34N 37°48' W 122°24'4 3.7
2016-Feb-09 14:32N 37°48' W 122°19'4 4.1
2016-Feb-09 13:34N 37°48' W 122°24'4 4.0
2016-Feb-09 12:33N 37°45' W 122°21'9 8.9
2016-Feb-09 11:33N 37°48' W 122°31'5 4.6
2016-Feb-09 10:33N 37°49' W 122°26'1 0.9
2016-Feb-09 09:33N 37°49' W 122°27'3 2.5
2016-Feb-09 08:33N 37°48' W 122°24'0 0.0
2016-Feb-09 07:33N 37°48' W 122°24'0 0.0
2016-Feb-09 06:34N 37°48' W 122°24'1 1.4
2016-Feb-09 05:33N 37°48' W 122°22'1 1.4
2016-Feb-09 04:33N 37°48' W 122°24'0 0.0
2016-Feb-09 03:33N 37°48' W 122°24'0 0.0
2016-Feb-09 02:33N 37°48' W 122°24'0 0.0
2016-Feb-09 01:33N 37°48' W 122°24'1 0.8
2016-Feb-09 00:33N 37°48' W 122°23'1 0.8
2016-Feb-08 23:33N 37°48' W 122°24'0 0.0
2016-Feb-08 22:33N 37°48' W 122°24'0 0.0
2016-Feb-08 21:33N 37°48' W 122°24'0 0.0
2016-Feb-08 20:33N 37°48' W 122°24'0 0.0
2016-Feb-08 19:33N 37°48' W 122°24'0 0.0
2016-Feb-08 18:33N 37°48' W 122°24'0 0.2
2016-Feb-08 17:34N 37°48' W 122°24'2 1.7
2016-Feb-08 16:34N 37°49' W 122°25'4 4.4
2016-Feb-08 15:34N 37°49' W 122°20'1 1.0
2016-Feb-08 14:34N 37°48' W 122°21'2 2.2
2016-Feb-08 13:33N 37°48' W 122°24'2 1.9
2016-Feb-08 12:33N 37°49' W 122°26'4 4.4
2016-Feb-08 11:33N 37°48' W 122°31'6 6.0
2016-Feb-08 10:33N 37°48' W 122°24'0 0.0
2016-Feb-08 09:34N 37°48' W 122°24'0 0.0
2016-Feb-08 08:33N 37°48' W 122°24'5 5.5
2016-Feb-08 07:33N 37°48' W 122°31'7 7.2
2016-Feb-08 06:33N 37°46' W 122°22'2 2.4
2016-Feb-08 05:34N 37°48' W 122°24'0 0.0
2016-Feb-08 04:34N 37°48' W 122°24'2 1.8
2016-Feb-08 03:33N 37°47' W 122°22'2 1.8
2016-Feb-08 02:33N 37°48' W 122°24'0 0.0
2016-Feb-08 01:33N 37°48' W 122°24'0 0.0
2016-Feb-08 00:33N 37°48' W 122°24'0 0.0
2016-Feb-07 23:33N 37°48' W 122°24'3 3.2
2016-Feb-07 22:34N 37°48' W 122°20'3 3.2
2016-Feb-07 21:33N 37°48' W 122°24'3 2.7
2016-Feb-07 20:34N 37°48' W 122°20'3 2.6
2016-Feb-07 19:33N 37°48' W 122°24'0 0.0
2016-Feb-07 18:33N 37°48' W 122°24'0 0.0
2016-Feb-07 17:33N 37°48' W 122°24'0 0.0
2016-Feb-07 16:33N 37°48' W 122°24'0 0.0
2016-Feb-07 15:33N 37°48' W 122°24'0 0.0
2016-Feb-07 14:33N 37°48' W 122°24'0 0.0
2016-Feb-07 13:33N 37°48' W 122°24'0 0.0
2016-Feb-07 12:33N 37°48' W 122°24'0 0.0
2016-Feb-07 11:33N 37°48' W 122°24'0 0.0
2016-Feb-07 10:33N 37°48' W 122°24'0 0.0
2016-Feb-07 09:33N 37°48' W 122°24'0 0.0
2016-Feb-07 08:34N 37°48' W 122°24'0 0.0
2016-Feb-07 07:33N 37°48' W 122°24'0 0.0
2016-Feb-07 06:34N 37°48' W 122°24'0 0.0
2016-Feb-07 05:34N 37°48' W 122°24'2 1.6
2016-Feb-07 04:34N 37°48' W 122°22'2 1.6
2016-Feb-07 03:33N 37°48' W 122°24'0 0.0
2016-Feb-07 02:33N 37°48' W 122°24'0 0.0
2016-Feb-07 01:34N 37°48' W 122°24'0 0.0
2016-Feb-07 00:34N 37°48' W 122°24'0 0.0
2016-Feb-06 23:33N 37°48' W 122°24'8 7.5
2016-Feb-06 22:34N 37°47' W 122°33'8 7.5
2016-Feb-06 21:33N 37°48' W 122°24'2 1.8
2016-Feb-06 20:33N 37°48' W 122°21'2 1.8
2016-Feb-06 19:33N 37°48' W 122°24'3 3.3
2016-Feb-06 18:33N 37°46' W 122°20'4 4.5
2016-Feb-06 17:33N 37°49' W 122°25'2 1.6
2016-Feb-06 16:34N 37°48' W 122°23'1 0.6
2016-Feb-06 15:33N 37°48' W 122°24'4 3.7
2016-Feb-06 14:34N 37°48' W 122°19'4 3.7
2016-Feb-06 13:33N 37°48' W 122°24'4 3.6
2016-Feb-06 12:34N 37°45' W 122°21'3 2.8
2016-Feb-06 11:34N 37°48' W 122°23'7 7.2
2016-Feb-06 10:34N 37°47' W 122°32'9 9.4
2016-Feb-06 09:34N 37°48' W 122°20'3 3.0
2016-Feb-06 08:34N 37°48' W 122°24'0 0.0
2016-Feb-06 07:34N 37°48' W 122°24'0 0.0
2016-Feb-06 06:34N 37°48' W 122°24'0 0.0
2016-Feb-06 05:33N 37°48' W 122°24'1110.7
2016-Feb-06 04:30N 37°46' W 122°38'1314.1
2016-Feb-06 03:33N 37°46' W 122°21'3 3.0
2016-Feb-06 02:33N 37°48' W 122°24'0 0.1
2016-Feb-06 01:34N 37°48' W 122°24'3 3.3
2016-Feb-06 00:34N 37°48' W 122°20'3 3.4
2016-Feb-05 23:33N 37°48' W 122°24'2 2.1
2016-Feb-05 22:33N 37°49' W 122°26'1 1.2
2016-Feb-05 21:34N 37°49' W 122°28'3 3.2
2016-Feb-05 20:33N 37°48' W 122°24'2 2.2
2016-Feb-05 19:33N 37°49' W 122°26'5 5.3
2016-Feb-05 18:34N 37°49' W 122°20'1 0.7
2016-Feb-05 17:34N 37°48' W 122°20'3 3.1
2016-Feb-05 16:33N 37°48' W 122°24'0 0.0
2016-Feb-05 15:33N 37°48' W 122°24'3 3.5
2016-Feb-05 14:34N 37°49' W 122°19'3 3.4
2016-Feb-05 13:33N 37°48' W 122°24'3 2.9
2016-Feb-05 12:33N 37°46' W 122°21'2 2.1
2016-Feb-05 11:34N 37°48' W 122°20'3 2.7
2016-Feb-05 10:34N 37°48' W 122°24'0 0.0
2016-Feb-05 09:34N 37°48' W 122°24'0 0.0
2016-Feb-05 08:34N 37°48' W 122°24'6 5.7
2016-Feb-05 07:32N 37°48' W 122°31'6 5.9
2016-Feb-05 06:33N 37°48' W 122°24'0 0.0
2016-Feb-05 05:33N 37°48' W 122°24'3 3.1
2016-Feb-05 04:33N 37°49' W 122°20'5 4.7
2016-Feb-05 03:33N 37°49' W 122°26'2 2.0
2016-Feb-05 02:33N 37°48' W 122°24'0 0.0
2016-Feb-05 01:33N 37°48' W 122°24'0 0.0
2016-Feb-05 00:33N 37°48' W 122°24'0 0.0
2016-Feb-04 23:33N 37°48' W 122°24'0 0.0
2016-Feb-04 22:33N 37°48' W 122°24'0 0.0
2016-Feb-04 21:33N 37°48' W 122°24'3 3.4
2016-Feb-04 20:33N 37°48' W 122°20'3 3.4
2016-Feb-04 19:33N 37°48' W 122°24'0 0.0
2016-Feb-04 18:33N 37°48' W 122°24'0 0.0
2016-Feb-04 17:34N 37°48' W 122°24'1 0.7
2016-Feb-04 16:34N 37°49' W 122°24'1 1.0
2016-Feb-04 15:29N 37°49' W 122°25'1 1.3
2016-Feb-04 14:33N 37°48' W 122°24'0 0.0
2016-Feb-04 13:33N 37°48' W 122°24'4 3.5
2016-Feb-04 12:34N 37°49' W 122°19'4 3.5
2016-Feb-04 11:33N 37°48' W 122°24'0 0.0
2016-Feb-04 10:33N 37°48' W 122°24'0 0.0
2016-Feb-04 09:33N 37°48' W 122°24'1010.4
2016-Feb-04 08:34N 37°46' W 122°37'1010.3
2016-Feb-04 07:33N 37°48' W 122°24'0 0.0
2016-Feb-04 06:33N 37°48' W 122°24'0 0.0
2016-Feb-04 05:34N 37°48' W 122°24'  

Dump ship's entire track history